Pandora, Texas
Current Conditions -  °F | °C
As of 2:12 AM on Friday 31 Oct 2014 (Local Time) from KRND Reporting Station
Drizzle Drizzle  
Wind Chill: 68°   Ceiling: 8000
Heat Index: 68°   Visibility: 10mi
Dew Point: 61°   Wind: 5mph
Humidity: 78%   Direction: 10°N
Pressure: 30.12"   Gusts: NA
Location:  29.25°N, 97.84°W
Report Text: KRND 310712Z AUTO 01004KT 10SM -DZ FEW044 BKN080 OVC120 20/16 A3012 RMK AO2 LTG DSNT E
Loading
Personal Weather Stations






























Interactive Weather Map
Tropical Storm Tracking
New forecast layout! Learn more

10-Day Weather Forecast

Advertisements
Track Severe Weather on mobile